Time;durP1;ratioP1;P1;durP2;ratioP2;P2;SDS_P1;SDS_P2;PMS_P1;PMS_P2;Temp;Humidity;BMP_temperature;BMP_pressure;BME280_temperature;BME280_humidity;BME280_pressure;Samples;Min_cycle;Max_cycle;Signal;HPM_P1;HPM_P2
2022/05/25 00:00:31;;;;;;;2.77;2.57;;;17.30;99.90;;;;;;5070063;28;20236;-59
2022/05/25 00:02:58;;;;;;;2.40;2.20;;;17.30;99.90;;;;;;5068617;28;20193;-59
2022/05/25 00:05:25;;;;;;;2.50;2.30;;;17.30;99.90;;;;;;5069942;28;20635;-59
2022/05/25 00:07:52;;;;;;;1.90;1.80;;;17.30;99.90;;;;;;5068366;28;20235;-59
2022/05/25 00:10:19;;;;;;;2.05;1.95;;;17.30;99.90;;;;;;5070667;28;20196;-59
2022/05/25 00:12:46;;;;;;;1.80;1.70;;;17.20;99.90;;;;;;5069484;28;20287;-58
2022/05/25 00:15:16;;;;;;;1.60;1.50;;;17.30;99.90;;;;;;5103113;28;20201;-59
2022/05/25 00:17:43;;;;;;;1.77;1.67;;;17.30;99.90;;;;;;5070000;28;20312;-59
2022/05/25 00:20:11;;;;;;;1.73;1.63;;;17.30;99.90;;;;;;5070477;28;20191;-59
2022/05/25 00:22:44;;;;;;;2.00;1.90;;;17.30;99.90;;;;;;5067888;28;20734;-59
2022/05/25 00:25:14;;;;;;;2.37;1.70;;;17.30;99.90;;;;;;5050917;28;20196;-59
2022/05/25 00:27:41;;;;;;;2.10;2.00;;;17.30;99.90;;;;;;5070223;28;20222;-59
2022/05/25 00:30:09;;;;;;;4.28;3.88;;;17.30;99.90;;;;;;5070241;28;20199;-59
2022/05/25 00:32:38;;;;;;;4.20;3.80;;;17.30;99.90;;;;;;5068187;28;20231;-59
2022/05/25 00:35:07;;;;;;;4.73;4.27;;;17.20;99.90;;;;;;5070099;28;20197;-59
2022/05/25 00:37:34;;;;;;;3.23;3.03;;;17.10;99.90;;;;;;5067865;28;20198;-59
2022/05/25 00:40:01;;;;;;;3.70;3.40;;;17.00;99.90;;;;;;5069062;28;20280;-59
2022/05/25 00:42:28;;;;;;;2.50;2.40;;;17.00;99.90;;;;;;5068885;28;20427;-60
2022/05/25 00:44:55;;;;;;;2.87;2.67;;;17.00;99.90;;;;;;5069885;28;20565;-59
2022/05/25 00:47:26;;;;;;;2.80;2.60;;;17.00;99.90;;;;;;5068870;28;20307;-59
2022/05/25 00:49:55;;;;;;;2.37;2.20;;;17.00;99.90;;;;;;5068387;28;20279;-59
2022/05/25 00:52:23;;;;;;;2.00;1.90;;;17.10;99.90;;;;;;5067456;28;20196;-60
2022/05/25 00:54:53;;;;;;;2.10;1.90;;;17.00;99.90;;;;;;5069669;28;20203;-60
2022/05/25 00:57:23;;;;;;;1.75;1.65;;;17.10;99.90;;;;;;5069409;28;20190;-60
2022/05/25 00:59:58;;;;;;;1.60;1.50;;;17.10;99.90;;;;;;5069645;28;20199;-60
2022/05/25 01:02:28;;;;;;;2.23;2.13;;;17.10;99.90;;;;;;5064911;28;20190;-60
2022/05/25 01:04:57;;;;;;;3.30;2.60;;;17.10;99.90;;;;;;5060409;28;20195;-61
2022/05/25 01:07:40;;;;;;;2.27;2.07;;;17.20;99.90;;;;;;5067449;28;20245;-59
2022/05/25 01:10:15;;;;;;;2.65;2.15;;;17.10;99.90;;;;;;5067554;28;20620;-59
2022/05/25 01:13:01;;;;;;;3.07;2.23;;;17.20;99.90;;;;;;5067940;28;20194;-59
2022/05/25 01:15:37;;;;;;;2.10;2.00;;;17.20;99.90;;;;;;5069749;28;20203;-59
2022/05/25 01:18:15;;;;;;;2.20;2.10;;;17.20;99.90;;;;;;5068208;28;20198;-59
2022/05/25 01:20:46;;;;;;;2.10;2.00;;;17.20;99.90;;;;;;5069050;28;20203;-60
2022/05/25 01:23:55;;;;;;;2.50;2.30;;;17.20;99.90;;;;;;5067533;28;20196;-59
2022/05/25 01:26:59;;;;;;;2.47;2.17;;;17.20;99.90;;;;;;5062701;28;20216;-59
2022/05/25 01:30:04;;;;;;;1.90;1.80;;;17.20;99.90;;;;;;5061252;28;20202;-60
2022/05/25 01:32:38;;;;;;;2.27;2.10;;;17.10;99.90;;;;;;5056467;28;20404;-60
2022/05/25 01:35:12;;;;;;;1.90;1.80;;;17.10;99.90;;;;;;5067954;28;20666;-60
2022/05/25 01:37:47;;;;;;;2.00;1.90;;;17.10;99.90;;;;;;5067440;28;20602;-59
2022/05/25 01:40:22;;;;;;;4.73;2.90;;;17.10;99.90;;;;;;5069752;28;20270;-59
2022/05/25 01:42:55;;;;;;;2.72;2.55;;;17.10;99.90;;;;;;5059680;28;20568;-59
2022/05/25 01:45:29;;;;;;;2.70;2.50;;;17.10;99.90;;;;;;5067756;28;20293;-59
2022/05/25 01:48:01;;;;;;;2.83;2.63;;;17.10;99.90;;;;;;5067489;28;20243;-59
2022/05/25 01:50:34;;;;;;;2.70;2.50;;;17.10;99.90;;;;;;5068746;28;20553;-59
2022/05/25 01:53:07;;;;;;;2.40;2.30;;;17.10;99.90;;;;;;5067107;28;20411;-59
2022/05/25 01:55:38;;;;;;;2.22;2.10;;;17.10;99.90;;;;;;5069638;28;20202;-59
2022/05/25 01:58:10;;;;;;;1.97;1.87;;;17.10;99.90;;;;;;5067310;28;20190;-59
2022/05/25 02:00:41;;;;;;;2.00;1.90;;;17.10;99.90;;;;;;5058077;28;20210;-60
2022/05/25 02:06:14;;;;;;;1.60;1.50;;;17.10;99.90;;;;;;5063128;28;20297;-60
2022/05/25 02:08:50;;;;;;;1.80;1.70;;;17.10;99.90;;;;;;5066673;28;20204;-59
2022/05/25 02:11:25;;;;;;;2.60;2.40;;;17.10;99.90;;;;;;5068525;28;20185;-59
2022/05/25 02:14:01;;;;;;;2.50;2.30;;;17.10;99.90;;;;;;5068582;28;20668;-59
2022/05/25 02:16:42;;;;;;;2.08;1.85;;;17.10;99.90;;;;;;5066133;28;20206;-59
2022/05/25 02:19:16;;;;;;;2.60;2.40;;;17.10;99.90;;;;;;5066864;28;20250;-59
2022/05/25 02:21:51;;;;;;;1.90;1.80;;;17.10;99.90;;;;;;5068398;28;20283;-59
2022/05/25 02:24:25;;;;;;;1.90;1.80;;;17.20;99.90;;;;;;5065265;28;20215;-59
2022/05/25 02:26:56;;;;;;;1.80;1.70;;;17.20;99.90;;;;;;5062870;28;20638;-59
2022/05/25 02:29:27;;;;;;;1.80;1.70;;;17.20;99.90;;;;;;5071802;28;20569;-59
2022/05/25 02:32:01;;;;;;;1.80;1.70;;;17.20;99.90;;;;;;5072777;28;20203;-60
2022/05/25 02:34:31;;;;;;;2.10;2.00;;;17.20;99.90;;;;;;5072178;28;20192;-59
2022/05/25 02:36:59;;;;;;;2.90;1.93;;;17.20;99.90;;;;;;5071890;28;20254;-59
2022/05/25 02:39:26;;;;;;;2.00;1.90;;;17.10;99.90;;;;;;5070481;28;20198;-59
2022/05/25 02:41:56;;;;;;;2.05;1.95;;;17.20;99.90;;;;;;5072213;28;20201;-58
2022/05/25 02:44:24;;;;;;;2.38;1.80;;;17.20;99.90;;;;;;5055050;28;20308;-58
2022/05/25 02:46:51;;;;;;;1.70;1.60;;;17.20;99.90;;;;;;5072036;28;20190;-59
2022/05/25 02:49:20;;;;;;;1.77;1.67;;;17.20;99.90;;;;;;5071439;28;20239;-59
2022/05/25 02:51:48;;;;;;;1.70;1.60;;;17.20;99.90;;;;;;5071745;28;20270;-59
2022/05/25 02:54:15;;;;;;;1.52;1.50;;;17.20;99.90;;;;;;5070330;28;20204;-59
2022/05/25 02:56:42;;;;;;;1.87;1.77;;;17.20;99.90;;;;;;5071860;28;20196;-60
2022/05/25 02:59:09;;;;;;;2.13;2.00;;;17.20;99.90;;;;;;5071270;28;20200;-60
2022/05/25 03:01:36;;;;;;;1.90;1.80;;;17.20;99.90;;;;;;5071980;28;20281;-60
2022/05/25 03:04:03;;;;;;;2.13;1.98;;;17.20;99.90;;;;;;5070095;28;20266;-60
2022/05/25 03:06:32;;;;;;;1.95;1.85;;;17.20;99.90;;;;;;5071148;28;20207;-60
2022/05/25 03:08:59;;;;;;;2.03;1.93;;;17.20;99.90;;;;;;5068439;28;20688;-60
2022/05/25 03:11:26;;;;;;;1.83;1.70;;;17.20;99.90;;;;;;5071161;28;20717;-59
2022/05/25 03:13:54;;;;;;;1.57;1.50;;;17.30;99.90;;;;;;5071447;28;20200;-60
2022/05/25 03:16:22;;;;;;;1.80;1.70;;;17.30;99.90;;;;;;5103513;28;20204;-60
2022/05/25 03:18:50;;;;;;;1.77;1.67;;;17.30;99.90;;;;;;5071346;28;20262;-61
2022/05/25 03:21:18;;;;;;;1.70;1.60;;;17.30;99.90;;;;;;5070464;28;20283;-60
2022/05/25 03:23:47;;;;;;;3.00;2.80;;;17.30;99.90;;;;;;5069762;28;20258;-60
2022/05/25 03:26:14;;;;;;;2.90;2.33;;;17.30;99.90;;;;;;5058408;28;20600;-60
2022/05/25 03:28:41;;;;;;;1.73;1.63;;;17.30;99.90;;;;;;5071271;28;20691;-60
2022/05/25 03:31:08;;;;;;;2.15;2.05;;;17.30;99.90;;;;;;5071121;28;20212;-60
2022/05/25 03:33:35;;;;;;;2.17;2.08;;;17.30;99.90;;;;;;5071304;28;20648;-60
2022/05/25 03:36:03;;;;;;;2.60;2.40;;;17.30;99.90;;;;;;5070466;28;20208;-60
2022/05/25 03:38:30;;;;;;;2.00;1.80;;;17.30;99.90;;;;;;5069840;28;20200;-60
2022/05/25 03:41:01;;;;;;;3.15;2.40;;;17.30;99.90;;;;;;5070570;28;20303;-60
2022/05/25 03:43:32;;;;;;;2.10;2.00;;;17.60;99.90;;;;;;5071162;28;20217;-60
2022/05/25 03:45:59;;;;;;;2.10;2.00;;;17.30;99.90;;;;;;5066876;28;20657;-59
2022/05/25 03:48:27;;;;;;;1.88;1.77;;;17.30;99.90;;;;;;5070381;28;20720;-60
2022/05/25 03:50:54;;;;;;;1.90;1.80;;;17.30;99.90;;;;;;5070483;28;20202;-59
2022/05/25 03:53:21;;;;;;;1.58;1.52;;;17.30;99.90;;;;;;5064244;28;20207;-59
2022/05/25 03:55:48;;;;;;;1.92;1.83;;;17.30;99.90;;;;;;5070943;28;20204;-59
2022/05/25 03:58:17;;;;;;;2.72;2.53;;;17.30;99.90;;;;;;5069887;28;20212;-59
2022/05/25 04:00:44;;;;;;;2.03;1.92;;;17.30;99.90;;;;;;5069514;28;20210;-59
2022/05/25 04:03:13;;;;;;;2.13;2.03;;;17.30;99.90;;;;;;5068855;28;20640;-59
2022/05/25 04:05:41;;;;;;;2.13;1.90;;;17.30;99.90;;;;;;5071157;28;20200;-60
2022/05/25 04:08:09;;;;;;;2.23;2.13;;;17.30;99.90;;;;;;5067143;28;20275;-60
2022/05/25 04:10:37;;;;;;;4.35;2.60;;;17.30;99.90;;;;;;5070823;28;20707;-60
2022/05/25 04:13:04;;;;;;;2.30;2.10;;;17.30;99.90;;;;;;5069829;28;20623;-60
2022/05/25 04:15:34;;;;;;;2.20;2.10;;;17.40;99.90;;;;;;5070656;28;20197;-61
2022/05/25 04:18:01;;;;;;;3.70;2.63;;;17.40;99.90;;;;;;5069614;28;20292;-60
2022/05/25 04:20:30;;;;;;;2.63;2.42;;;17.40;99.90;;;;;;5070820;28;20198;-59
2022/05/25 04:22:58;;;;;;;2.73;2.40;;;17.40;99.90;;;;;;5068101;28;20203;-60
2022/05/25 04:25:26;;;;;;;2.75;2.45;;;17.40;99.90;;;;;;5070428;28;20290;-59
2022/05/25 04:27:55;;;;;;;2.60;2.40;;;17.40;99.90;;;;;;5069999;28;20721;-59
2022/05/25 04:30:25;;;;;;;2.47;2.20;;;17.50;99.90;;;;;;5103534;28;20212;-59
2022/05/25 04:32:54;;;;;;;3.13;2.67;;;17.40;99.90;;;;;;5070272;28;20535;-59
2022/05/25 04:35:22;;;;;;;2.22;2.00;;;17.50;99.90;;;;;;5070680;28;20187;-60
2022/05/25 04:37:55;;;;;;;3.63;2.78;;;17.40;99.90;;;;;;5066266;28;20197;-59
2022/05/25 04:40:26;;;;;;;2.28;2.17;;;17.50;99.90;;;;;;5070165;28;20189;-59
2022/05/25 04:42:55;;;;;;;3.17;2.90;;;17.50;99.90;;;;;;5070124;28;20590;-60
2022/05/25 04:45:25;;;;;;;2.85;2.65;;;17.50;99.90;;;;;;5102675;28;20197;-59
2022/05/25 04:47:54;;;;;;;3.10;2.90;;;17.50;99.90;;;;;;5068640;28;20319;-60
2022/05/25 04:50:23;;;;;;;3.67;3.38;;;17.50;99.90;;;;;;5065966;28;20197;-60
2022/05/25 04:52:51;;;;;;;3.60;3.30;;;17.50;99.90;;;;;;5068006;28;20208;-59
2022/05/25 04:58:04;;;;;;;3.00;2.80;;;17.60;99.90;;;;;;5069441;28;20192;-59
2022/05/25 05:00:31;;;;;;;3.25;2.80;;;17.60;99.90;;;;;;5068385;28;20546;-60
2022/05/25 05:03:00;;;;;;;2.72;2.53;;;17.60;99.90;;;;;;5067252;28;22709;-60
2022/05/25 05:05:27;;;;;;;3.55;2.63;;;17.60;99.90;;;;;;5068816;28;20208;-60
2022/05/25 05:07:54;;;;;;;3.00;2.80;;;17.60;99.90;;;;;;5066901;28;20224;-60
2022/05/25 05:10:21;;;;;;;2.47;2.37;;;17.70;99.90;;;;;;5069629;28;20193;-59
2022/05/25 05:12:48;;;;;;;3.40;2.80;;;17.70;99.90;;;;;;5068731;28;20201;-60
2022/05/25 05:15:16;;;;;;;3.25;2.97;;;17.70;99.90;;;;;;5069595;28;20200;-59
2022/05/25 05:17:43;;;;;;;3.53;3.22;;;17.70;99.90;;;;;;5068576;28;20196;-59
2022/05/25 05:20:26;;;;;;;3.42;3.13;;;17.70;99.90;;;;;;5068373;28;20204;-58
2022/05/25 05:22:53;;;;;;;3.60;3.30;;;17.70;99.90;;;;;;5066961;28;20193;-60
2022/05/25 05:25:20;;;;;;;3.28;2.90;;;17.80;99.90;;;;;;5069134;28;20618;-60
2022/05/25 05:27:48;;;;;;;2.60;2.40;;;17.80;99.90;;;;;;5067810;28;20650;-60
2022/05/25 05:30:18;;;;;;;3.35;3.05;;;17.80;99.90;;;;;;5069478;28;20201;-60
2022/05/25 05:32:45;;;;;;;2.92;2.72;;;17.90;99.90;;;;;;5068617;28;20684;-59
2022/05/25 05:35:12;;;;;;;3.00;2.75;;;17.90;99.90;;;;;;5069444;28;20246;-59
2022/05/25 05:37:46;;;;;;;3.70;3.40;;;17.90;99.90;;;;;;5070846;28;20255;-60
2022/05/25 05:40:16;;;;;;;3.15;2.78;;;17.90;99.90;;;;;;5062600;28;20189;-60
2022/05/25 05:42:45;;;;;;;3.67;3.00;;;17.90;99.90;;;;;;5066491;28;20207;-60
2022/05/25 05:45:17;;;;;;;2.72;2.50;;;18.00;99.90;;;;;;5069139;28;20265;-61
2022/05/25 05:47:55;;;;;;;3.60;3.08;;;18.00;99.90;;;;;;5068301;28;20704;-59
2022/05/25 05:50:24;;;;;;;3.72;2.83;;;18.00;99.90;;;;;;5069234;28;20192;-60
2022/05/25 05:52:53;;;;;;;3.22;2.92;;;18.00;99.90;;;;;;5067308;28;20216;-61
2022/05/25 05:55:21;;;;;;;2.80;2.60;;;18.00;99.90;;;;;;5069004;28;20565;-60
2022/05/25 05:57:49;;;;;;;2.85;2.63;;;18.00;99.90;;;;;;5068515;28;20642;-60
2022/05/25 06:00:17;;;;;;;3.47;2.75;;;18.00;99.90;;;;;;5068180;28;20280;-59
2022/05/25 06:02:45;;;;;;;2.40;2.20;;;18.00;99.90;;;;;;5072815;28;20202;-60
2022/05/25 06:05:12;;;;;;;2.20;2.10;;;18.10;99.90;;;;;;5070732;28;20216;-59
2022/05/25 06:07:40;;;;;;;2.30;2.10;;;18.10;99.90;;;;;;5070940;28;20200;-59
2022/05/25 06:10:10;;;;;;;2.60;2.40;;;18.10;99.90;;;;;;5072773;28;20212;-60
2022/05/25 06:12:37;;;;;;;2.67;2.30;;;18.00;99.90;;;;;;5072500;28;20189;-60
2022/05/25 06:20:32;;;;;;;2.20;2.10;;;18.10;99.90;;;;;;5071336;28;20193;-60
2022/05/25 06:22:59;;;;;;;2.55;2.28;;;18.10;99.90;;;;;;5069980;28;20270;-60
2022/05/25 06:25:28;;;;;;;2.30;2.20;;;18.10;99.90;;;;;;5072414;28;20200;-60
2022/05/25 06:27:56;;;;;;;3.67;2.80;;;18.10;99.90;;;;;;5072166;28;20673;-60
2022/05/25 06:30:24;;;;;;;3.30;2.38;;;18.10;99.90;;;;;;5072767;28;20195;-61
2022/05/25 06:32:51;;;;;;;2.35;2.15;;;18.10;99.90;;;;;;5068720;28;20206;-60
2022/05/25 06:35:19;;;;;;;2.40;2.20;;;18.10;99.90;;;;;;5072644;28;20201;-60
2022/05/25 06:37:47;;;;;;;2.63;2.43;;;18.10;99.90;;;;;;5057718;28;20229;-60
2022/05/25 06:40:14;;;;;;;2.03;1.92;;;18.20;99.90;;;;;;5072645;28;20270;-60
2022/05/25 06:42:44;;;;;;;1.80;1.70;;;18.20;99.90;;;;;;5071375;28;20186;-59
2022/05/25 06:45:12;;;;;;;2.13;1.92;;;18.20;99.90;;;;;;5072402;28;20192;-60
2022/05/25 06:47:39;;;;;;;2.50;2.40;;;18.30;99.90;;;;;;5069929;28;20309;-59
2022/05/25 06:50:08;;;;;;;2.28;2.08;;;18.30;99.90;;;;;;5070634;28;20216;-59
2022/05/25 06:52:35;;;;;;;1.95;1.85;;;18.40;99.90;;;;;;5069720;28;20225;-60
2022/05/25 06:55:02;;;;;;;1.83;1.73;;;18.40;99.90;;;;;;5072887;28;20672;-60
2022/05/25 06:57:29;;;;;;;2.22;1.92;;;18.50;99.90;;;;;;5071811;28;20201;-60
2022/05/25 06:59:58;;;;;;;1.50;1.40;;;18.50;99.90;;;;;;5072342;28;20642;-59
2022/05/25 07:02:26;;;;;;;2.45;2.08;;;18.50;99.90;;;;;;5071126;28;20266;-60
2022/05/25 07:04:54;;;;;;;1.83;1.73;;;18.50;99.90;;;;;;5068166;28;20246;-60
2022/05/25 07:07:22;;;;;;;1.60;1.50;;;18.50;99.90;;;;;;5069994;28;20730;-60
2022/05/25 07:09:50;;;;;;;2.40;2.25;;;18.60;99.90;;;;;;5064490;28;20213;-60
2022/05/25 07:12:18;;;;;;;2.15;2.05;;;18.50;99.90;;;;;;5071002;28;20189;-60
2022/05/25 07:14:45;;;;;;;1.92;1.83;;;18.60;99.90;;;;;;5072205;28;20201;-60
2022/05/25 07:17:14;;;;;;;1.90;1.80;;;18.50;99.90;;;;;;5071766;28;20194;-60
2022/05/25 07:19:41;;;;;;;1.70;1.60;;;18.50;99.90;;;;;;5071482;28;20200;-61
2022/05/25 07:22:09;;;;;;;3.65;1.95;;;18.50;99.90;;;;;;5070551;28;20232;-61
2022/05/25 07:24:37;;;;;;;1.98;1.88;;;18.50;99.90;;;;;;5070408;28;20676;-60
2022/05/25 07:27:05;;;;;;;2.22;2.13;;;18.50;99.90;;;;;;5059909;28;20722;-60
2022/05/25 07:29:32;;;;;;;2.08;1.95;;;18.50;99.90;;;;;;5060719;28;20206;-60
2022/05/25 07:32:04;;;;;;;2.13;1.90;;;18.60;99.90;;;;;;5103866;28;20205;-60
2022/05/25 07:34:38;;;;;;;1.90;1.80;;;18.70;99.90;;;;;;5071082;28;20197;-60
2022/05/25 07:37:11;;;;;;;2.08;1.98;;;18.70;99.90;;;;;;5061057;28;20185;-60
2022/05/25 07:39:44;;;;;;;2.13;2.03;;;18.70;99.90;;;;;;5070559;28;20196;-60
2022/05/25 07:42:12;;;;;;;1.80;1.70;;;18.80;99.90;;;;;;5070796;28;20381;-60
2022/05/25 07:44:45;;;;;;;1.73;1.63;;;18.90;99.90;;;;;;5070994;28;20197;-59
2022/05/25 07:47:12;;;;;;;1.77;1.67;;;18.90;99.90;;;;;;5070941;28;20309;-60
2022/05/25 07:49:41;;;;;;;2.13;1.75;;;19.00;99.90;;;;;;5070951;28;20292;-60
2022/05/25 07:52:10;;;;;;;2.10;2.00;;;19.00;99.90;;;;;;5069582;28;20665;-60
2022/05/25 07:54:40;;;;;;;2.05;1.92;;;19.10;99.90;;;;;;5070433;28;20194;-59
2022/05/25 07:57:07;;;;;;;1.95;1.85;;;19.10;99.90;;;;;;5070760;28;20208;-59
2022/05/25 07:59:34;;;;;;;1.55;1.52;;;19.20;99.90;;;;;;5069870;28;20224;-60
2022/05/25 08:07:39;;;;;;;1.83;1.73;;;19.40;99.90;;;;;;5068813;28;20201;-60
2022/05/25 08:10:09;;;;;;;1.38;1.27;;;19.40;99.90;;;;;;5070638;28;20209;-60
2022/05/25 08:12:38;;;;;;;1.77;1.67;;;19.40;99.90;;;;;;5069757;28;20565;-60
2022/05/25 08:15:08;;;;;;;1.83;1.73;;;19.50;99.90;;;;;;5070780;28;20200;-60
2022/05/25 08:17:35;;;;;;;2.13;2.00;;;19.50;99.90;;;;;;5070511;28;20292;-60
2022/05/25 08:20:05;;;;;;;1.52;1.42;;;19.50;99.90;;;;;;5070740;28;20280;-59
2022/05/25 08:22:33;;;;;;;2.13;2.03;;;19.60;99.90;;;;;;5067340;28;20227;-61
2022/05/25 08:25:00;;;;;;;2.92;1.85;;;19.60;99.90;;;;;;5066326;28;20221;-60
2022/05/25 08:27:28;;;;;;;1.88;1.70;;;19.60;99.90;;;;;;5061776;28;20197;-60
2022/05/25 08:29:55;;;;;;;1.20;1.20;;;19.60;99.90;;;;;;5070361;28;20219;-60
2022/05/25 08:32:22;;;;;;;1.75;1.65;;;19.60;99.90;;;;;;5070676;28;20751;-59
2022/05/25 08:34:49;;;;;;;1.33;1.23;;;19.60;99.90;;;;;;5070115;28;20193;-61
2022/05/25 08:37:18;;;;;;;1.60;1.50;;;19.60;99.90;;;;;;5068140;28;20200;-60
2022/05/25 08:39:45;;;;;;;1.95;1.33;;;19.60;99.90;;;;;;5069918;28;20194;-59
2022/05/25 08:42:18;;;;;;;1.30;1.30;;;19.50;99.90;;;;;;5069547;28;20285;-61
2022/05/25 08:44:49;;;;;;;1.10;1.10;;;19.60;99.90;;;;;;5068875;28;20186;-59
2022/05/25 08:47:16;;;;;;;1.00;1.00;;;19.50;99.90;;;;;;5068447;28;20343;-61
2022/05/25 08:49:49;;;;;;;2.20;1.45;;;19.60;99.90;;;;;;5070022;28;20251;-61
2022/05/25 08:52:24;;;;;;;1.48;1.38;;;19.50;99.90;;;;;;5068126;28;20683;-60
2022/05/25 08:54:52;;;;;;;1.67;1.58;;;19.50;99.90;;;;;;5069959;28;20645;-60
2022/05/25 08:57:25;;;;;;;2.47;1.42;;;19.50;99.90;;;;;;5069745;28;20731;-60
2022/05/25 08:59:56;;;;;;;2.08;1.70;;;19.50;99.90;;;;;;5070000;28;20188;-60
2022/05/25 09:02:30;;;;;;;1.77;1.67;;;19.40;99.90;;;;;;5101891;28;20209;-60
2022/05/25 09:05:02;;;;;;;1.85;1.75;;;19.40;99.90;;;;;;5068306;28;20197;-59
2022/05/25 09:07:40;;;;;;;2.03;1.90;;;19.40;99.90;;;;;;5061335;28;20185;-60
2022/05/25 09:10:09;;;;;;;1.35;1.35;;;19.50;99.90;;;;;;5065773;28;20229;-60
2022/05/25 09:12:42;;;;;;;2.45;1.40;;;19.30;99.90;;;;;;5068909;28;20220;-60
2022/05/25 09:15:14;;;;;;;1.27;1.27;;;19.30;99.90;;;;;;5069909;28;20637;-60
2022/05/25 09:17:45;;;;;;;1.30;1.20;;;19.40;99.90;;;;;;5067701;28;20271;-60
2022/05/25 09:20:16;;;;;;;1.08;1.08;;;19.40;99.90;;;;;;5069731;28;20199;-61
2022/05/25 09:22:45;;;;;;;1.08;1.00;;;19.40;99.90;;;;;;5067471;28;20204;-60
2022/05/25 09:25:15;;;;;;;1.15;1.15;;;20.00;99.90;;;;;;5072252;28;20187;-60
2022/05/25 09:27:47;;;;;;;1.13;1.10;;;19.50;99.90;;;;;;5078058;28;20528;-60
2022/05/25 09:30:15;;;;;;;1.10;1.10;;;19.50;99.90;;;;;;5069247;28;20599;-60
2022/05/25 09:32:50;;;;;;;1.23;1.13;;;19.50;99.90;;;;;;5069260;28;20549;-60
2022/05/25 09:35:21;;;;;;;1.17;1.17;;;19.50;99.90;;;;;;5069286;28;20189;-60
2022/05/25 09:37:56;;;;;;;0.93;0.93;;;19.60;99.90;;;;;;5066419;28;20246;-61
2022/05/25 09:40:25;;;;;;;1.40;1.30;;;19.60;99.90;;;;;;5068088;28;20193;-60
2022/05/25 09:42:56;;;;;;;1.08;1.08;;;19.60;99.90;;;;;;5068698;28;20207;-60
2022/05/25 09:45:24;;;;;;;1.40;1.30;;;19.60;99.90;;;;;;5061657;28;20193;-59
2022/05/25 09:47:53;;;;;;;1.88;1.77;;;19.60;99.90;;;;;;5068648;28;20229;-60
2022/05/25 09:50:30;;;;;;;1.80;1.70;;;19.50;99.90;;;;;;5061909;28;20201;-59
2022/05/25 09:53:03;;;;;;;1.67;1.58;;;19.40;99.90;;;;;;5062370;28;20193;-59
2022/05/25 09:55:35;;;;;;;1.08;1.08;;;19.40;99.90;;;;;;5069236;28;20193;-60
2022/05/25 09:58:06;;;;;;;1.30;1.20;;;19.40;99.90;;;;;;5068565;28;20653;-59
2022/05/25 10:00:53;;;;;;;1.00;1.00;;;19.40;99.90;;;;;;5069121;28;20238;-59
2022/05/25 10:03:35;;;;;;;0.90;0.90;;;19.40;99.90;;;;;;5067420;28;20212;-59
2022/05/25 10:06:16;;;;;;;1.00;0.88;;;19.40;99.90;;;;;;5068758;28;20193;-60
2022/05/25 10:08:45;;;;;;;1.10;1.10;;;19.40;99.90;;;;;;5065712;28;20285;-59
2022/05/25 10:11:27;;;;;;;2.45;0.90;;;19.40;99.90;;;;;;5068258;28;20270;-60
2022/05/25 10:13:56;;;;;;;1.58;1.48;;;19.40;99.90;;;;;;5067646;28;20196;-59
2022/05/25 10:16:26;;;;;;;1.60;1.50;;;19.40;99.90;;;;;;5068933;28;20193;-60
2022/05/25 10:18:54;;;;;;;1.65;1.55;;;19.30;99.90;;;;;;5068673;28;20787;-59
2022/05/25 10:21:28;;;;;;;1.50;1.40;;;19.20;99.90;;;;;;5068482;28;20200;-59
2022/05/25 10:23:59;;;;;;;1.40;1.30;;;19.30;99.90;;;;;;5067624;28;20201;-59
2022/05/25 10:26:33;;;;;;;1.23;1.13;;;19.20;99.90;;;;;;5071670;28;20221;-60
2022/05/25 10:29:06;;;;;;;1.30;1.27;;;19.20;99.90;;;;;;5068868;28;20730;-60
2022/05/25 10:37:19;;;;;;;1.27;1.10;;;19.10;99.90;;;;;;5067185;28;20193;-59
2022/05/25 10:40:00;;;;;;;1.25;1.20;;;19.10;99.90;;;;;;5068596;28;20237;-59
2022/05/25 10:42:32;;;;;;;1.60;1.50;;;19.10;99.90;;;;;;5066494;28;20243;-59
2022/05/25 10:45:07;;;;;;;1.23;1.23;;;19.00;99.90;;;;;;5069073;28;20288;-60
2022/05/25 10:48:08;;;;;;;2.40;1.80;;;19.00;99.90;;;;;;5071984;28;20255;-60
2022/05/25 10:50:42;;;;;;;1.30;1.20;;;18.90;99.90;;;;;;5058906;28;20311;-60
2022/05/25 10:53:17;;;;;;;1.60;1.20;;;18.90;99.90;;;;;;5070337;28;20262;-60
2022/05/25 10:55:53;;;;;;;1.50;1.40;;;18.90;99.90;;;;;;5069563;28;20196;-60
2022/05/25 10:58:34;;;;;;;0.95;0.90;;;18.80;99.90;;;;;;5072058;28;20193;-60
2022/05/25 11:01:17;;;;;;;1.02;1.00;;;18.80;99.90;;;;;;5062601;28;20505;-59
2022/05/25 11:04:26;;;;;;;2.38;0.93;;;18.80;99.90;;;;;;5069684;28;20247;-60
2022/05/25 11:07:05;;;;;;;0.95;0.95;;;18.80;99.90;;;;;;5053107;28;20213;-59
2022/05/25 11:10:11;;;;;;;0.88;0.88;;;18.80;99.90;;;;;;5065356;28;20197;-60
2022/05/25 11:12:49;;;;;;;0.95;0.85;;;18.80;99.90;;;;;;5060985;28;20193;-59
2022/05/25 11:15:27;;;;;;;0.73;0.73;;;18.80;99.90;;;;;;5071665;28;20193;-60
2022/05/25 11:18:18;;;;;;;0.88;0.88;;;18.80;99.90;;;;;;5071312;28;20212;-60
2022/05/25 11:20:53;;;;;;;3.15;0.98;;;18.80;99.90;;;;;;5061451;28;20296;-59
2022/05/25 11:23:39;;;;;;;1.05;1.05;;;18.80;99.90;;;;;;5068891;28;20200;-60
2022/05/25 11:26:21;;;;;;;1.00;1.00;;;18.80;99.90;;;;;;5058255;28;20201;-59
2022/05/25 11:28:58;;;;;;;1.00;1.00;;;18.80;99.90;;;;;;5071941;28;20555;-60
2022/05/25 11:31:35;;;;;;;1.25;0.90;;;18.70;99.90;;;;;;5072002;28;20213;-60
2022/05/25 11:34:15;;;;;;;0.95;0.95;;;18.70;99.90;;;;;;5071527;28;20240;-60
2022/05/25 11:36:58;;;;;;;0.70;0.70;;;18.70;99.90;;;;;;5071355;28;20208;-59
2022/05/25 11:39:43;;;;;;;1.50;1.40;;;18.70;99.90;;;;;;5102073;28;20225;-60
2022/05/25 11:42:20;;;;;;;1.42;1.15;;;18.70;99.90;;;;;;5070720;28;20247;-60
2022/05/25 11:44:59;;;;;;;1.20;1.13;;;18.70;99.90;;;;;;5068415;28;20197;-59
2022/05/25 11:47:45;;;;;;;1.42;1.25;;;18.80;99.90;;;;;;5070633;28;20236;-60
2022/05/25 11:50:25;;;;;;;1.10;1.10;;;18.70;99.90;;;;;;5063718;28;20260;-61
2022/05/25 11:53:08;;;;;;;1.25;1.05;;;18.70;99.90;;;;;;5068421;28;20262;-60
2022/05/25 11:55:46;;;;;;;2.40;0.98;;;18.70;99.90;;;;;;5071635;28;20189;-60
2022/05/25 11:58:23;;;;;;;0.90;0.90;;;18.70;99.90;;;;;;5069417;28;20220;-59
2022/05/25 12:01:02;;;;;;;2.33;0.93;;;18.70;99.90;;;;;;5069915;28;20212;-60
2022/05/25 12:04:14;;;;;;;0.70;0.70;;;18.70;99.90;;;;;;5069525;28;20203;-60
2022/05/25 12:07:10;;;;;;;0.80;0.80;;;18.70;99.90;;;;;;5067485;28;20271;-60
2022/05/25 12:10:00;;;;;;;0.88;0.80;;;18.70;99.90;;;;;;5070033;28;20653;-59
2022/05/25 12:12:35;;;;;;;0.77;0.77;;;18.60;99.90;;;;;;5065292;28;20269;-60
2022/05/25 12:15:09;;;;;;;0.60;0.60;;;18.60;99.90;;;;;;5070300;28;20189;-61
2022/05/25 12:17:48;;;;;;;0.60;0.60;;;18.60;99.90;;;;;;5070025;28;20535;-59
2022/05/25 12:20:23;;;;;;;1.00;0.80;;;18.70;99.90;;;;;;5070860;28;20197;-61
2022/05/25 12:22:53;;;;;;;0.60;0.60;;;18.70;99.90;;;;;;5067719;28;20196;-60
2022/05/25 12:25:23;;;;;;;0.93;0.70;;;18.70;99.90;;;;;;5063328;28;20201;-60
2022/05/25 12:27:57;;;;;;;0.50;0.50;;;18.80;99.90;;;;;;5064364;28;20205;-61
2022/05/25 12:30:33;;;;;;;0.60;0.60;;;18.80;99.90;;;;;;5059676;28;20217;-61
2022/05/25 12:33:04;;;;;;;3.80;0.70;;;18.80;99.90;;;;;;5069604;28;20200;-60
2022/05/25 12:35:34;;;;;;;0.80;0.80;;;18.80;99.90;;;;;;5070431;28;20229;-60
2022/05/25 12:38:06;;;;;;;0.77;0.77;;;18.80;99.90;;;;;;5066210;28;20432;-60
2022/05/25 12:40:42;;;;;;;0.60;0.60;;;18.80;99.90;;;;;;5070255;28;20213;-60
2022/05/25 12:43:57;;;;;;;0.70;0.70;;;18.80;99.90;;;;;;5068576;28;20205;-59
2022/05/25 12:49:38;;;;;;;0.60;0.60;;;18.80;99.90;;;;;;5008121;28;20195;-59
2022/05/25 12:52:39;;;;;;;0.80;0.80;;;18.90;99.90;;;;;;5054010;28;20573;-61
2022/05/25 12:55:18;;;;;;;0.73;0.73;;;18.80;99.90;;;;;;5070415;28;20204;-61
2022/05/25 12:57:50;;;;;;;0.60;0.60;;;18.80;99.90;;;;;;5068801;28;20217;-58
2022/05/25 13:00:21;;;;;;;0.90;0.90;;;18.80;99.90;;;;;;5069745;28;20225;-61
2022/05/25 13:02:49;;;;;;;1.00;0.80;;;18.80;99.90;;;;;;5068343;28;20208;-60
2022/05/25 13:05:53;;;;;;;0.90;0.90;;;18.80;99.90;;;;;;5065872;28;20236;-60
2022/05/25 13:09:07;;;;;;;0.88;0.75;;;18.80;99.90;;;;;;5057458;28;20247;-60
2022/05/25 13:11:41;;;;;;;1.05;0.77;;;18.80;99.90;;;;;;5069387;28;20213;-61
2022/05/25 13:14:41;;;;;;;0.60;0.60;;;18.80;99.90;;;;;;5068688;28;20634;-60
2022/05/25 13:17:08;;;;;;;0.70;0.70;;;18.80;99.90;;;;;;5069436;28;20193;-60
2022/05/25 13:19:43;;;;;;;0.70;0.70;;;18.80;99.90;;;;;;5070007;28;20201;-60
2022/05/25 13:22:23;;;;;;;0.60;0.60;;;18.80;99.90;;;;;;5067030;28;20197;-60
2022/05/25 13:25:17;;;;;;;0.65;0.65;;;18.80;99.90;;;;;;5066802;28;20190;-59
2022/05/25 13:28:09;;;;;;;1.08;0.98;;;18.90;99.90;;;;;;5049410;28;20652;-60
2022/05/25 13:30:50;;;;;;;0.70;0.70;;;18.90;99.70;;;;;;5060997;28;20580;-60
2022/05/25 13:33:24;;;;;;;1.00;0.70;;;18.90;99.50;;;;;;5069184;28;20200;-60
2022/05/25 13:35:55;;;;;;;0.73;0.73;;;18.90;99.50;;;;;;5069212;28;20193;-60
2022/05/25 13:38:33;;;;;;;0.70;0.70;;;18.80;99.30;;;;;;5068008;28;20197;-61
2022/05/25 13:41:09;;;;;;;0.70;0.70;;;18.80;99.20;;;;;;5069232;28;20187;-59